sensor_id;sensor_type;location;lat;lon;timestamp;pressure;altitude;pressure_sealevel;temperature;humidity
57594;BME280;43423;46.510;6.686;2024-02-28T00:00:29;96022.84;;;7.32;97.31
57594;BME280;43423;46.510;6.686;2024-02-28T00:03:14;96008.69;;;7.19;96.66
57594;BME280;43423;46.510;6.686;2024-02-28T00:05:40;96018.41;;;7.20;97.79
57594;BME280;43423;46.510;6.686;2024-02-28T00:08:06;96009.03;;;7.12;97.63
57594;BME280;43423;46.510;6.686;2024-02-28T00:10:32;96017.06;;;7.15;97.20
57594;BME280;43423;46.510;6.686;2024-02-28T00:12:59;96016.78;;;7.13;97.81
57594;BME280;43423;46.510;6.686;2024-02-28T00:15:24;96014.03;;;7.13;97.09
57594;BME280;43423;46.510;6.686;2024-02-28T00:17:52;96019.56;;;7.28;96.51
57594;BME280;43423;46.510;6.686;2024-02-28T00:20:18;96012.94;;;7.20;96.79
57594;BME280;43423;46.510;6.686;2024-02-28T00:22:44;96013.69;;;7.20;96.11
57594;BME280;43423;46.510;6.686;2024-02-28T00:25:10;96015.25;;;7.36;95.95
57594;BME280;43423;46.510;6.686;2024-02-28T00:27:37;96007.47;;;7.20;95.31
57594;BME280;43423;46.510;6.686;2024-02-28T00:30:03;96011.91;;;7.32;94.98
57594;BME280;43423;46.510;6.686;2024-02-28T00:32:32;96012.28;;;7.25;95.61
57594;BME280;43423;46.510;6.686;2024-02-28T00:34:58;96016.69;;;7.22;94.96
57594;BME280;43423;46.510;6.686;2024-02-28T00:37:23;96024.59;;;7.44;94.14
57594;BME280;43423;46.510;6.686;2024-02-28T00:39:49;96025.03;;;7.28;93.76
57594;BME280;43423;46.510;6.686;2024-02-28T00:42:15;96026.59;;;7.20;94.76
57594;BME280;43423;46.510;6.686;2024-02-28T00:44:41;96035.38;;;7.24;94.21
57594;BME280;43423;46.510;6.686;2024-02-28T00:47:11;96024.78;;;7.17;95.34
57594;BME280;43423;46.510;6.686;2024-02-28T00:49:37;96038.03;;;7.33;93.67
57594;BME280;43423;46.510;6.686;2024-02-28T00:52:03;96044.09;;;7.37;93.12
57594;BME280;43423;46.510;6.686;2024-02-28T00:54:28;96035.63;;;7.50;93.20
57594;BME280;43423;46.510;6.686;2024-02-28T00:56:54;96042.41;;;7.40;93.56
57594;BME280;43423;46.510;6.686;2024-02-28T00:59:20;96042.66;;;7.27;94.41
57594;BME280;43423;46.510;6.686;2024-02-28T01:01:45;96039.13;;;7.26;94.51
57594;BME280;43423;46.510;6.686;2024-02-28T01:04:13;96037.81;;;7.22;94.99
57594;BME280;43423;46.510;6.686;2024-02-28T01:06:39;96042.34;;;7.25;95.32
57594;BME280;43423;46.510;6.686;2024-02-28T01:09:04;96054.38;;;7.18;95.12
57594;BME280;43423;46.510;6.686;2024-02-28T01:11:30;96052.88;;;7.17;95.12
57594;BME280;43423;46.510;6.686;2024-02-28T01:13:56;96043.41;;;7.04;95.64
57594;BME280;43423;46.510;6.686;2024-02-28T01:16:21;96043.97;;;7.08;96.20
57594;BME280;43423;46.510;6.686;2024-02-28T01:18:47;96049.22;;;6.96;96.93
57594;BME280;43423;46.510;6.686;2024-02-28T01:21:12;96047.94;;;7.07;96.79
57594;BME280;43423;46.510;6.686;2024-02-28T01:23:38;96057.03;;;7.13;96.08
57594;BME280;43423;46.510;6.686;2024-02-28T01:26:04;96052.13;;;7.17;95.81
57594;BME280;43423;46.510;6.686;2024-02-28T01:28:31;96053.75;;;6.99;96.27
57594;BME280;43423;46.510;6.686;2024-02-28T01:30:57;96056.56;;;7.14;96.01
57594;BME280;43423;46.510;6.686;2024-02-28T01:33:23;96058.25;;;7.12;96.57
57594;BME280;43423;46.510;6.686;2024-02-28T01:35:49;96058.69;;;7.10;96.46
57594;BME280;43423;46.510;6.686;2024-02-28T01:38:14;96059.97;;;7.00;97.52
57594;BME280;43423;46.510;6.686;2024-02-28T01:40:46;96057.09;;;6.94;97.62
57594;BME280;43423;46.510;6.686;2024-02-28T01:43:12;96059.31;;;6.81;98.28
57594;BME280;43423;46.510;6.686;2024-02-28T01:45:38;96066.69;;;6.66;99.79
57594;BME280;43423;46.510;6.686;2024-02-28T01:48:06;96069.16;;;6.88;98.73
57594;BME280;43423;46.510;6.686;2024-02-28T01:50:35;96066.97;;;6.68;100.00
57594;BME280;43423;46.510;6.686;2024-02-28T01:53:02;96057.13;;;6.61;100.00
57594;BME280;43423;46.510;6.686;2024-02-28T01:55:30;96065.59;;;6.63;100.00
57594;BME280;43423;46.510;6.686;2024-02-28T01:57:56;96062.09;;;6.72;100.00
57594;BME280;43423;46.510;6.686;2024-02-28T02:00:22;96067.56;;;6.63;100.00
57594;BME280;43423;46.510;6.686;2024-02-28T02:02:49;96068.41;;;6.87;99.72
57594;BME280;43423;46.510;6.686;2024-02-28T02:05:15;96065.78;;;6.60;100.00
57594;BME280;43423;46.510;6.686;2024-02-28T02:07:42;96077.13;;;6.67;100.00
57594;BME280;43423;46.510;6.686;2024-02-28T02:10:08;96086.72;;;6.96;99.24
57594;BME280;43423;46.510;6.686;2024-02-28T02:12:37;96089.66;;;6.83;99.71
57594;BME280;43423;46.510;6.686;2024-02-28T02:15:03;96083.50;;;6.74;100.00
57594;BME280;43423;46.510;6.686;2024-02-28T02:17:29;96084.41;;;6.70;100.00
57594;BME280;43423;46.510;6.686;2024-02-28T02:19:55;96077.88;;;6.68;100.00
57594;BME280;43423;46.510;6.686;2024-02-28T02:22:21;96084.28;;;6.65;100.00
57594;BME280;43423;46.510;6.686;2024-02-28T02:24:48;96083.03;;;6.75;100.00
57594;BME280;43423;46.510;6.686;2024-02-28T02:27:14;96081.81;;;6.76;100.00
57594;BME280;43423;46.510;6.686;2024-02-28T02:29:40;96080.53;;;6.86;100.00
57594;BME280;43423;46.510;6.686;2024-02-28T02:32:05;96084.53;;;6.76;100.00
57594;BME280;43423;46.510;6.686;2024-02-28T02:34:31;96088.41;;;6.93;100.00
57594;BME280;43423;46.510;6.686;2024-02-28T02:36:57;96084.09;;;7.02;100.00
57594;BME280;43423;46.510;6.686;2024-02-28T02:39:23;96088.72;;;6.86;100.00
57594;BME280;43423;46.510;6.686;2024-02-28T02:41:48;96099.34;;;6.93;100.00
57594;BME280;43423;46.510;6.686;2024-02-28T02:44:14;96091.50;;;7.10;100.00
57594;BME280;43423;46.510;6.686;2024-02-28T02:46:39;96099.50;;;7.23;99.85
57594;BME280;43423;46.510;6.686;2024-02-28T02:49:05;96102.09;;;7.17;99.86
57594;BME280;43423;46.510;6.686;2024-02-28T02:51:30;96101.06;;;7.15;99.95
57594;BME280;43423;46.510;6.686;2024-02-28T02:53:56;96106.31;;;7.27;99.71
57594;BME280;43423;46.510;6.686;2024-02-28T02:56:22;96104.03;;;7.26;99.34
57594;BME280;43423;46.510;6.686;2024-02-28T02:58:47;96110.72;;;7.25;99.05
57594;BME280;43423;46.510;6.686;2024-02-28T03:01:13;96109.19;;;7.24;99.56
57594;BME280;43423;46.510;6.686;2024-02-28T03:03:39;96106.28;;;7.04;100.00
57594;BME280;43423;46.510;6.686;2024-02-28T03:06:04;96111.81;;;7.18;100.00
57594;BME280;43423;46.510;6.686;2024-02-28T03:08:31;96113.09;;;7.08;99.97
57594;BME280;43423;46.510;6.686;2024-02-28T03:10:56;96114.38;;;7.22;99.93
57594;BME280;43423;46.510;6.686;2024-02-28T03:13:22;96122.31;;;7.20;99.69
57594;BME280;43423;46.510;6.686;2024-02-28T03:15:48;96121.59;;;7.34;98.63
57594;BME280;43423;46.510;6.686;2024-02-28T03:18:14;96131.56;;;7.22;100.00
57594;BME280;43423;46.510;6.686;2024-02-28T03:20:39;96139.00;;;7.22;99.98
57594;BME280;43423;46.510;6.686;2024-02-28T03:23:05;96144.00;;;7.23;99.84
57594;BME280;43423;46.510;6.686;2024-02-28T03:25:32;96146.09;;;7.28;99.58
57594;BME280;43423;46.510;6.686;2024-02-28T03:27:58;96149.81;;;7.16;100.00
57594;BME280;43423;46.510;6.686;2024-02-28T03:30:25;96150.78;;;7.37;99.35
57594;BME280;43423;46.510;6.686;2024-02-28T03:32:51;96154.41;;;7.34;99.14
57594;BME280;43423;46.510;6.686;2024-02-28T03:35:16;96162.00;;;7.39;98.66
57594;BME280;43423;46.510;6.686;2024-02-28T03:37:42;96152.00;;;7.03;100.00
57594;BME280;43423;46.510;6.686;2024-02-28T03:40:08;96171.53;;;7.20;99.49
57594;BME280;43423;46.510;6.686;2024-02-28T03:42:33;96165.72;;;7.27;99.40
57594;BME280;43423;46.510;6.686;2024-02-28T03:44:59;96170.97;;;7.40;98.75
57594;BME280;43423;46.510;6.686;2024-02-28T03:47:25;96175.06;;;7.44;98.34
57594;BME280;43423;46.510;6.686;2024-02-28T03:49:51;96171.25;;;7.42;98.61
57594;BME280;43423;46.510;6.686;2024-02-28T03:52:16;96171.53;;;7.11;99.57
57594;BME280;43423;46.510;6.686;2024-02-28T03:54:45;96177.75;;;7.20;99.59
57594;BME280;43423;46.510;6.686;2024-02-28T03:57:10;96177.97;;;6.98;100.00
57594;BME280;43423;46.510;6.686;2024-02-28T03:59:36;96183.75;;;7.00;100.00
57594;BME280;43423;46.510;6.686;2024-02-28T04:02:02;96186.03;;;6.93;100.00
57594;BME280;43423;46.510;6.686;2024-02-28T04:04:27;96186.78;;;6.93;100.00
57594;BME280;43423;46.510;6.686;2024-02-28T04:06:53;96184.47;;;7.10;99.84
57594;BME280;43423;46.510;6.686;2024-02-28T04:09:19;96191.63;;;7.08;99.97
57594;BME280;43423;46.510;6.686;2024-02-28T04:11:45;96187.41;;;6.97;100.00
57594;BME280;43423;46.510;6.686;2024-02-28T04:14:11;96189.63;;;7.08;100.00
57594;BME280;43423;46.510;6.686;2024-02-28T04:16:43;96190.72;;;7.02;100.00
57594;BME280;43423;46.510;6.686;2024-02-28T04:19:10;96193.44;;;7.02;100.00
57594;BME280;43423;46.510;6.686;2024-02-28T04:21:36;96182.19;;;7.09;99.92
57594;BME280;43423;46.510;6.686;2024-02-28T04:24:02;96192.84;;;7.07;99.85
57594;BME280;43423;46.510;6.686;2024-02-28T04:26:29;96198.38;;;6.88;100.00
57594;BME280;43423;46.510;6.686;2024-02-28T04:28:55;96199.66;;;7.02;100.00
57594;BME280;43423;46.510;6.686;2024-02-28T04:31:21;96206.94;;;7.14;100.00
57594;BME280;43423;46.510;6.686;2024-02-28T04:33:47;96204.06;;;7.09;99.76
57594;BME280;43423;46.510;6.686;2024-02-28T04:36:13;96212.16;;;7.03;99.37
57594;BME280;43423;46.510;6.686;2024-02-28T04:38:38;96206.94;;;7.14;98.80
57594;BME280;43423;46.510;6.686;2024-02-28T04:41:04;96200.34;;;6.88;100.00
57594;BME280;43423;46.510;6.686;2024-02-28T04:43:30;96199.53;;;7.06;100.00
57594;BME280;43423;46.510;6.686;2024-02-28T04:45:55;96198.88;;;7.20;98.69
57594;BME280;43423;46.510;6.686;2024-02-28T04:48:21;96194.38;;;6.98;100.00
57594;BME280;43423;46.510;6.686;2024-02-28T04:50:47;96190.69;;;7.11;99.86
57594;BME280;43423;46.510;6.686;2024-02-28T04:53:14;96201.22;;;7.03;99.66
57594;BME280;43423;46.510;6.686;2024-02-28T04:55:39;96202.59;;;6.98;100.00
57594;BME280;43423;46.510;6.686;2024-02-28T04:58:05;96199.53;;;7.06;99.94
57594;BME280;43423;46.510;6.686;2024-02-28T05:00:30;96213.75;;;7.19;99.26
57594;BME280;43423;46.510;6.686;2024-02-28T05:02:56;96209.81;;;7.20;99.46
57594;BME280;43423;46.510;6.686;2024-02-28T05:05:22;96199.59;;;6.87;100.00
57594;BME280;43423;46.510;6.686;2024-02-28T05:07:47;96213.25;;;6.87;100.00
57594;BME280;43423;46.510;6.686;2024-02-28T05:10:13;96203.06;;;6.97;100.00
57594;BME280;43423;46.510;6.686;2024-02-28T05:12:39;96210.53;;;6.87;100.00
57594;BME280;43423;46.510;6.686;2024-02-28T05:15:05;96214.19;;;6.75;100.00
57594;BME280;43423;46.510;6.686;2024-02-28T05:17:32;96215.22;;;6.78;100.00
57594;BME280;43423;46.510;6.686;2024-02-28T05:19:57;96219.59;;;6.93;100.00
57594;BME280;43423;46.510;6.686;2024-02-28T05:22:23;96233.91;;;6.88;100.00
57594;BME280;43423;46.510;6.686;2024-02-28T05:24:49;96218.09;;;6.92;100.00
57594;BME280;43423;46.510;6.686;2024-02-28T05:27:15;96225.22;;;6.90;100.00
57594;BME280;43423;46.510;6.686;2024-02-28T05:29:40;96236.59;;;6.97;100.00
57594;BME280;43423;46.510;6.686;2024-02-28T05:32:08;96247.38;;;7.01;100.00
57594;BME280;43423;46.510;6.686;2024-02-28T05:34:34;96242.84;;;6.98;99.76
57594;BME280;43423;46.510;6.686;2024-02-28T05:37:00;96247.56;;;6.88;100.00
57594;BME280;43423;46.510;6.686;2024-02-28T05:39:27;96253.78;;;6.89;100.00
57594;BME280;43423;46.510;6.686;2024-02-28T05:41:55;96254.19;;;7.06;99.48
57594;BME280;43423;46.510;6.686;2024-02-28T05:44:20;96257.72;;;6.97;100.00
57594;BME280;43423;46.510;6.686;2024-02-28T05:46:46;96253.75;;;6.98;99.47
57594;BME280;43423;46.510;6.686;2024-02-28T05:49:11;96254.06;;;6.91;99.59
57594;BME280;43423;46.510;6.686;2024-02-28T05:51:37;96264.25;;;6.90;99.55
57594;BME280;43423;46.510;6.686;2024-02-28T05:54:03;96259.84;;;6.84;100.00
57594;BME280;43423;46.510;6.686;2024-02-28T05:56:29;96273.78;;;6.95;99.99
57594;BME280;43423;46.510;6.686;2024-02-28T05:58:55;96279.25;;;6.95;99.14
57594;BME280;43423;46.510;6.686;2024-02-28T06:01:21;96281.09;;;6.98;99.17
57594;BME280;43423;46.510;6.686;2024-02-28T06:03:50;96274.56;;;6.86;98.92
57594;BME280;43423;46.510;6.686;2024-02-28T06:06:16;96290.34;;;7.00;98.77
57594;BME280;43423;46.510;6.686;2024-02-28T06:08:43;96293.72;;;6.95;98.60
57594;BME280;43423;46.510;6.686;2024-02-28T06:11:09;96296.13;;;6.93;98.11
57594;BME280;43423;46.510;6.686;2024-02-28T06:13:35;96305.41;;;6.87;98.36
57594;BME280;43423;46.510;6.686;2024-02-28T06:16:01;96306.00;;;6.91;98.65
57594;BME280;43423;46.510;6.686;2024-02-28T06:18:27;96297.22;;;6.96;98.60
57594;BME280;43423;46.510;6.686;2024-02-28T06:20:54;96300.69;;;6.96;97.93
57594;BME280;43423;46.510;6.686;2024-02-28T06:23:20;96302.97;;;6.89;97.67
57594;BME280;43423;46.510;6.686;2024-02-28T06:25:46;96309.50;;;6.91;97.79
57594;BME280;43423;46.510;6.686;2024-02-28T06:28:12;96317.38;;;7.08;97.42
57594;BME280;43423;46.510;6.686;2024-02-28T06:30:38;96318.31;;;6.95;96.79
57594;BME280;43423;46.510;6.686;2024-02-28T06:33:03;96323.78;;;6.86;97.56
57594;BME280;43423;46.510;6.686;2024-02-28T06:35:30;96326.50;;;6.86;97.92
57594;BME280;43423;46.510;6.686;2024-02-28T06:37:56;96323.78;;;6.86;97.86
57594;BME280;43423;46.510;6.686;2024-02-28T06:40:21;96326.38;;;6.90;97.24
57594;BME280;43423;46.510;6.686;2024-02-28T06:42:47;96332.88;;;6.83;98.00
57594;BME280;43423;46.510;6.686;2024-02-28T06:45:13;96337.13;;;6.84;97.59
57594;BME280;43423;46.510;6.686;2024-02-28T06:47:39;96337.75;;;6.88;96.92
57594;BME280;43423;46.510;6.686;2024-02-28T06:50:06;96340.50;;;6.88;97.58
57594;BME280;43423;46.510;6.686;2024-02-28T06:52:32;96338.22;;;6.96;96.59
57594;BME280;43423;46.510;6.686;2024-02-28T06:54:58;96358.84;;;7.06;96.34
57594;BME280;43423;46.510;6.686;2024-02-28T06:57:25;96342.91;;;6.95;96.32
57594;BME280;43423;46.510;6.686;2024-02-28T06:59:51;96348.50;;;7.01;96.47
57594;BME280;43423;46.510;6.686;2024-02-28T07:02:16;96354.75;;;6.92;96.48
57594;BME280;43423;46.510;6.686;2024-02-28T07:04:42;96373.28;;;6.97;96.48
57594;BME280;43423;46.510;6.686;2024-02-28T07:07:08;96360.84;;;6.96;96.25
57594;BME280;43423;46.510;6.686;2024-02-28T07:09:34;96370.84;;;6.90;96.81
57594;BME280;43423;46.510;6.686;2024-02-28T07:12:00;96379.34;;;7.02;96.48
57594;BME280;43423;46.510;6.686;2024-02-28T07:14:26;96386.31;;;7.03;96.61
57594;BME280;43423;46.510;6.686;2024-02-28T07:16:52;96390.13;;;7.05;96.67
57594;BME280;43423;46.510;6.686;2024-02-28T07:19:18;96383.59;;;7.12;96.24
57594;BME280;43423;46.510;6.686;2024-02-28T07:21:44;96394.53;;;7.03;96.52
57594;BME280;43423;46.510;6.686;2024-02-28T07:24:10;96395.91;;;6.98;96.22
57594;BME280;43423;46.510;6.686;2024-02-28T07:26:36;96393.47;;;7.09;96.54
57594;BME280;43423;46.510;6.686;2024-02-28T07:29:01;96395.63;;;6.96;97.03
57594;BME280;43423;46.510;6.686;2024-02-28T07:31:27;96397.44;;;6.99;96.27
57594;BME280;43423;46.510;6.686;2024-02-28T07:33:53;96399.06;;;7.24;93.87
57594;BME280;43423;46.510;6.686;2024-02-28T07:36:19;96401.22;;;7.20;93.49
57594;BME280;43423;46.510;6.686;2024-02-28T07:38:45;96407.59;;;7.17;93.13
57594;BME280;43423;46.510;6.686;2024-02-28T07:41:11;96399.72;;;7.19;93.27
57594;BME280;43423;46.510;6.686;2024-02-28T07:43:37;96403.31;;;7.25;93.29
57594;BME280;43423;46.510;6.686;2024-02-28T07:46:09;96406.06;;;7.16;93.44
57594;BME280;43423;46.510;6.686;2024-02-28T07:48:37;96410.94;;;7.21;93.52
57594;BME280;43423;46.510;6.686;2024-02-28T07:51:06;96411.41;;;7.19;93.03
57594;BME280;43423;46.510;6.686;2024-02-28T07:53:32;96402.44;;;7.19;93.60
57594;BME280;43423;46.510;6.686;2024-02-28T07:55:58;96416.53;;;7.96;90.76
57594;BME280;43423;46.510;6.686;2024-02-28T07:58:24;96409.06;;;8.06;87.84
57594;BME280;43423;46.510;6.686;2024-02-28T08:00:51;96410.09;;;8.18;86.36
57594;BME280;43423;46.510;6.686;2024-02-28T08:03:20;96415.94;;;8.01;87.97
57594;BME280;43423;46.510;6.686;2024-02-28T08:05:45;96414.81;;;7.66;90.49
57594;BME280;43423;46.510;6.686;2024-02-28T08:08:12;96428.19;;;7.64;90.11
57594;BME280;43423;46.510;6.686;2024-02-28T08:10:38;96427.31;;;7.48;90.92
57594;BME280;43423;46.510;6.686;2024-02-28T08:13:04;96430.97;;;7.45;92.01
57594;BME280;43423;46.510;6.686;2024-02-28T08:15:30;96432.81;;;7.30;92.72
57594;BME280;43423;46.510;6.686;2024-02-28T08:17:57;96438.88;;;7.25;92.70
57594;BME280;43423;46.510;6.686;2024-02-28T08:20:23;96435.25;;;7.28;92.20
57594;BME280;43423;46.510;6.686;2024-02-28T08:22:49;96428.56;;;7.29;92.79
57594;BME280;43423;46.510;6.686;2024-02-28T08:25:18;96435.84;;;7.23;93.42
57594;BME280;43423;46.510;6.686;2024-02-28T08:27:43;96443.13;;;7.26;93.95
57594;BME280;43423;46.510;6.686;2024-02-28T08:30:09;96438.88;;;7.34;93.40
57594;BME280;43423;46.510;6.686;2024-02-28T08:32:35;96440.25;;;7.30;93.36
57594;BME280;43423;46.510;6.686;2024-02-28T08:35:00;96449.22;;;7.39;93.08
57594;BME280;43423;46.510;6.686;2024-02-28T08:37:26;96445.88;;;7.35;93.79
57594;BME280;43423;46.510;6.686;2024-02-28T08:39:54;96444.97;;;7.29;93.32
57594;BME280;43423;46.510;6.686;2024-02-28T08:42:26;96455.88;;;7.11;93.97
57594;BME280;43423;46.510;6.686;2024-02-28T08:44:53;96453.78;;;7.24;93.78
57594;BME280;43423;46.510;6.686;2024-02-28T08:47:23;96456.81;;;7.35;93.32
57594;BME280;43423;46.510;6.686;2024-02-28T08:49:49;96470.94;;;7.34;93.66
57594;BME280;43423;46.510;6.686;2024-02-28T08:52:15;96453.63;;;7.27;93.76
57594;BME280;43423;46.510;6.686;2024-02-28T08:54:40;96458.63;;;7.47;93.19
57594;BME280;43423;46.510;6.686;2024-02-28T08:57:06;96461.38;;;7.38;93.26
57594;BME280;43423;46.510;6.686;2024-02-28T08:59:32;96465.63;;;7.48;93.60
57594;BME280;43423;46.510;6.686;2024-02-28T09:01:58;96464.38;;;7.49;91.88
57594;BME280;43423;46.510;6.686;2024-02-28T09:04:23;96466.22;;;7.52;92.68
57594;BME280;43423;46.510;6.686;2024-02-28T09:06:49;96472.13;;;7.69;92.74
57594;BME280;43423;46.510;6.686;2024-02-28T09:09:15;96465.63;;;7.48;92.31
57594;BME280;43423;46.510;6.686;2024-02-28T09:11:40;96461.97;;;7.42;92.19
57594;BME280;43423;46.510;6.686;2024-02-28T09:14:06;96460.44;;;7.41;91.94
57594;BME280;43423;46.510;6.686;2024-02-28T09:16:32;96472.31;;;7.38;92.41
57594;BME280;43423;46.510;6.686;2024-02-28T09:18:57;96472.47;;;7.53;92.46
57594;BME280;43423;46.510;6.686;2024-02-28T09:21:23;96460.13;;;7.48;91.52
57594;BME280;43423;46.510;6.686;2024-02-28T09:23:48;96476.09;;;7.59;91.95
57594;BME280;43423;46.510;6.686;2024-02-28T09:26:14;96479.75;;;7.47;92.39
57594;BME280;43423;46.510;6.686;2024-02-28T09:28:40;96476.84;;;7.41;91.81
57594;BME280;43423;46.510;6.686;2024-02-28T09:31:05;96482.19;;;7.36;91.74
57594;BME280;43423;46.510;6.686;2024-02-28T09:33:31;96469.59;;;7.29;91.40
57594;BME280;43423;46.510;6.686;2024-02-28T09:35:57;96468.81;;;7.47;92.54
57594;BME280;43423;46.510;6.686;2024-02-28T09:38:22;96468.97;;;7.34;92.02
57594;BME280;43423;46.510;6.686;2024-02-28T09:40:48;96465.03;;;7.44;91.07
57594;BME280;43423;46.510;6.686;2024-02-28T09:43:24;96469.41;;;7.42;91.58
57594;BME280;43423;46.510;6.686;2024-02-28T09:45:59;96485.69;;;7.45;91.22
57594;BME280;43423;46.510;6.686;2024-02-28T09:48:27;96482.47;;;7.56;90.29
57594;BME280;43423;46.510;6.686;2024-02-28T09:50:54;96466.38;;;7.49;90.87
57594;BME280;43423;46.510;6.686;2024-02-28T09:53:21;96475.63;;;7.42;90.30
57594;BME280;43423;46.510;6.686;2024-02-28T09:55:48;96471.53;;;7.47;90.73
57594;BME280;43423;46.510;6.686;2024-02-28T09:58:14;96470.63;;;7.59;91.35
57594;BME280;43423;46.510;6.686;2024-02-28T10:00:41;96469.09;;;7.58;89.91
57594;BME280;43423;46.510;6.686;2024-02-28T10:03:11;96486.56;;;7.70;89.85
57594;BME280;43423;46.510;6.686;2024-02-28T10:05:37;96480.63;;;7.71;89.29
57594;BME280;43423;46.510;6.686;2024-02-28T10:08:05;96477.00;;;7.74;89.88
57594;BME280;43423;46.510;6.686;2024-02-28T10:10:31;96473.63;;;7.79;88.61
57594;BME280;43423;46.510;6.686;2024-02-28T10:12:57;96477.00;;;7.74;89.04
57594;BME280;43423;46.510;6.686;2024-02-28T10:15:26;96485.31;;;7.98;88.94
57594;BME280;43423;46.510;6.686;2024-02-28T10:17:52;96477.06;;;8.07;89.35
57594;BME280;43423;46.510;6.686;2024-02-28T10:20:17;96483.41;;;8.23;88.15
57594;BME280;43423;46.510;6.686;2024-02-28T10:22:43;96487.47;;;8.46;85.97
57594;BME280;43423;46.510;6.686;2024-02-28T10:25:09;96485.97;;;8.68;85.43
57594;BME280;43423;46.510;6.686;2024-02-28T10:27:35;96482.69;;;8.55;85.53
57594;BME280;43423;46.510;6.686;2024-02-28T10:30:02;96486.72;;;8.36;85.66
57594;BME280;43423;46.510;6.686;2024-02-28T10:32:33;96496.63;;;8.66;85.88
57594;BME280;43423;46.510;6.686;2024-02-28T10:35:01;96495.47;;;8.58;84.49
57594;BME280;43423;46.510;6.686;2024-02-28T10:37:28;96490.34;;;8.75;84.68
57594;BME280;43423;46.510;6.686;2024-02-28T10:39:57;96492.94;;;8.79;84.69
57594;BME280;43423;46.510;6.686;2024-02-28T10:42:22;96492.81;;;9.21;83.73
57594;BME280;43423;46.510;6.686;2024-02-28T10:44:52;96496.28;;;9.45;81.32
57594;BME280;43423;46.510;6.686;2024-02-28T10:47:19;96492.19;;;9.79;78.79
57594;BME280;43423;46.510;6.686;2024-02-28T10:49:45;96500.44;;;10.09;77.06
57594;BME280;43423;46.510;6.686;2024-02-28T10:52:11;96496.81;;;9.73;78.45
57594;BME280;43423;46.510;6.686;2024-02-28T10:54:41;96499.38;;;9.92;79.36
57594;BME280;43423;46.510;6.686;2024-02-28T10:57:12;96504.13;;;10.21;76.85
57594;BME280;43423;46.510;6.686;2024-02-28T10:59:40;96502.03;;;10.16;77.19
57594;BME280;43423;46.510;6.686;2024-02-28T11:02:07;96505.81;;;10.48;76.45
57594;BME280;43423;46.510;6.686;2024-02-28T11:04:33;96503.16;;;10.68;75.38
57594;BME280;43423;46.510;6.686;2024-02-28T11:07:00;96507.91;;;10.88;75.27
57594;BME280;43423;46.510;6.686;2024-02-28T11:09:28;96515.03;;;11.35;73.40
57594;BME280;43423;46.510;6.686;2024-02-28T11:11:55;96505.75;;;11.33;71.16
57594;BME280;43423;46.510;6.686;2024-02-28T11:14:22;96509.94;;;11.49;71.37
57594;BME280;43423;46.510;6.686;2024-02-28T11:17:01;96510.16;;;12.43;70.98
57594;BME280;43423;46.510;6.686;2024-02-28T11:19:31;96506.66;;;12.80;67.82
57594;BME280;43423;46.510;6.686;2024-02-28T11:22:01;96506.47;;;13.32;67.26
57594;BME280;43423;46.510;6.686;2024-02-28T11:24:32;96510.44;;;13.25;65.78
57594;BME280;43423;46.510;6.686;2024-02-28T11:26:58;96503.81;;;13.65;65.60
57594;BME280;43423;46.510;6.686;2024-02-28T11:29:25;96512.34;;;13.56;63.44
57594;BME280;43423;46.510;6.686;2024-02-28T11:31:52;96513.09;;;13.51;63.11
57594;BME280;43423;46.510;6.686;2024-02-28T11:34:17;96508.03;;;13.50;62.99
57594;BME280;43423;46.510;6.686;2024-02-28T11:36:47;96511.63;;;13.19;63.40
57594;BME280;43423;46.510;6.686;2024-02-28T11:39:13;96522.13;;;13.03;64.13
57594;BME280;43423;46.510;6.686;2024-02-28T11:41:39;96515.03;;;13.39;62.84
57594;BME280;43423;46.510;6.686;2024-02-28T11:44:05;96521.75;;;13.98;62.83
57594;BME280;43423;46.510;6.686;2024-02-28T11:46:31;96520.13;;;13.09;62.50
57594;BME280;43423;46.510;6.686;2024-02-28T11:48:57;96528.50;;;13.21;64.80
57594;BME280;43423;46.510;6.686;2024-02-28T11:51:23;96527.69;;;13.14;65.04
57594;BME280;43423;46.510;6.686;2024-02-28T11:53:49;96541.25;;;13.61;61.09
57594;BME280;43423;46.510;6.686;2024-02-28T11:56:14;96530.53;;;13.26;61.70
57594;BME280;43423;46.510;6.686;2024-02-28T11:58:52;96532.53;;;13.85;62.21
57594;BME280;43423;46.510;6.686;2024-02-28T12:01:20;96529.38;;;13.49;61.76
57594;BME280;43423;46.510;6.686;2024-02-28T12:03:56;96518.03;;;12.56;65.10
57594;BME280;43423;46.510;6.686;2024-02-28T12:06:23;96529.75;;;13.79;64.40
57594;BME280;43423;46.510;6.686;2024-02-28T12:08:48;96521.56;;;12.99;63.70
57594;BME280;43423;46.510;6.686;2024-02-28T12:11:14;96522.69;;;13.73;62.40
57594;BME280;43423;46.510;6.686;2024-02-28T12:13:40;96513.94;;;12.83;62.58
57594;BME280;43423;46.510;6.686;2024-02-28T12:16:07;96517.91;;;13.67;62.87
57594;BME280;43423;46.510;6.686;2024-02-28T12:18:33;96528.31;;;14.29;60.70
57594;BME280;43423;46.510;6.686;2024-02-28T12:21:00;96521.03;;;12.95;61.84
57594;BME280;43423;46.510;6.686;2024-02-28T12:23:25;96511.19;;;12.83;62.23
57594;BME280;43423;46.510;6.686;2024-02-28T12:25:51;96515.34;;;13.58;61.74
57594;BME280;43423;46.510;6.686;2024-02-28T12:28:16;96517.34;;;13.04;61.33
57594;BME280;43423;46.510;6.686;2024-02-28T12:30:43;96513.50;;;14.20;61.05
57594;BME280;43423;46.510;6.686;2024-02-28T12:33:10;96520.28;;;14.36;59.49
57594;BME280;43423;46.510;6.686;2024-02-28T12:35:39;96518.09;;;14.46;58.26
57594;BME280;43423;46.510;6.686;2024-02-28T12:38:04;96521.28;;;14.28;57.78
57594;BME280;43423;46.510;6.686;2024-02-28T12:40:31;96519.41;;;13.68;60.02
57594;BME280;43423;46.510;6.686;2024-02-28T12:42:56;96525.38;;;13.07;61.11
57594;BME280;43423;46.510;6.686;2024-02-28T12:45:22;96528.44;;;11.89;63.98
57594;BME280;43423;46.510;6.686;2024-02-28T12:47:48;96528.44;;;12.72;64.74
57594;BME280;43423;46.510;6.686;2024-02-28T12:50:14;96530.13;;;12.64;63.27
57594;BME280;43423;46.510;6.686;2024-02-28T12:52:39;96535.91;;;12.35;62.58
57594;BME280;43423;46.510;6.686;2024-02-28T12:55:05;96525.00;;;11.73;64.79
57594;BME280;43423;46.510;6.686;2024-02-28T12:57:31;96524.38;;;11.84;65.41
57594;BME280;43423;46.510;6.686;2024-02-28T12:59:56;96534.56;;;11.78;64.59
57594;BME280;43423;46.510;6.686;2024-02-28T13:02:22;96527.28;;;11.34;67.80